地図

経路データ

SID SEASON NUMBER BASIN SUBBASIN NAME ISO_TIME NATURE LAT LON WMO_WIND WMO_PRES WMO_AGENCY TRACK_TYPE DIST2LAND LANDFALL IFLAG USA_AGENCY USA_ATCF_ID USA_LAT USA_LON USA_RECORD USA_STATUS USA_WIND USA_PRES USA_SSHS USA_R34_NE USA_R34_SE USA_R34_SW USA_R34_NW USA_R50_NE USA_R50_SE USA_R50_SW USA_R50_NW USA_R64_NE USA_R64_SE USA_R64_SW USA_R64_NW USA_POCI USA_ROCI USA_RMW USA_EYE TOKYO_LAT TOKYO_LON TOKYO_GRADE TOKYO_WIND TOKYO_PRES TOKYO_R50_DIR TOKYO_R50_LONG TOKYO_R50_SHORT TOKYO_R30_DIR TOKYO_R30_LONG TOKYO_R30_SHORT TOKYO_LAND CMA_LAT CMA_LON CMA_CAT CMA_WIND CMA_PRES HKO_LAT HKO_LON HKO_CAT HKO_WIND HKO_PRES NEWDELHI_LAT NEWDELHI_LON NEWDELHI_GRADE NEWDELHI_WIND NEWDELHI_PRES NEWDELHI_CI NEWDELHI_DP NEWDELHI_POCI REUNION_LAT REUNION_LON REUNION_TYPE REUNION_WIND REUNION_PRES REUNION_TNUM REUNION_CI REUNION_RMW REUNION_R34_NE REUNION_R34_SE REUNION_R34_SW REUNION_R34_NW REUNION_R50_NE REUNION_R50_SE REUNION_R50_SW REUNION_R50_NW REUNION_R64_NE REUNION_R64_SE REUNION_R64_SW REUNION_R64_NW BOM_LAT BOM_LON BOM_TYPE BOM_WIND BOM_PRES BOM_TNUM BOM_CI BOM_RMW BOM_R34_NE BOM_R34_SE BOM_R34_SW BOM_R34_NW BOM_R50_NE BOM_R50_SE BOM_R50_SW BOM_R50_NW BOM_R64_NE BOM_R64_SE BOM_R64_SW BOM_R64_NW BOM_ROCI BOM_POCI BOM_EYE BOM_POS_METHOD BOM_PRES_METHOD NADI_LAT NADI_LON NADI_CAT NADI_WIND NADI_PRES WELLINGTON_LAT WELLINGTON_LON WELLINGTON_WIND WELLINGTON_PRES DS824_LAT DS824_LON DS824_STAGE DS824_WIND DS824_PRES TD9636_LAT TD9636_LON TD9636_STAGE TD9636_WIND TD9636_PRES TD9635_LAT TD9635_LON TD9635_WIND TD9635_PRES TD9635_ROCI NEUMANN_LAT NEUMANN_LON NEUMANN_CLASS NEUMANN_WIND NEUMANN_PRES MLC_LAT MLC_LON MLC_CLASS MLC_WIND MLC_PRES USA_GUST BOM_GUST BOM_GUST_PER REUNION_GUST REUNION_GUST_PER USA_SEAHGT USA_SEARAD_NE USA_SEARAD_SE USA_SEARAD_SW USA_SEARAD_NW STORM_SPEED STORM_DIR
1910182N20090 1910 24 NI BB NOT_NAMED 1910-07-01 00:00:00 TS 20.0000 90.0000 main 200 200 _________O____ -1 20.0000 90.0000 TC 64 0 0
1910182N20090 1910 24 NI BB NOT_NAMED 1910-07-01 03:00:00 TS 20.0000 90.0000 main 200 200 _________PO___ -1 20.0000 90.0000 TC 64 20.0000 90.0000 4 0 0
1910182N20090 1910 24 NI BB NOT_NAMED 1910-07-01 06:00:00 TS 20.0025 89.9944 main 200 200 _________OP___ -1 20.0000 90.0000 TC 64 20.0063 89.9860 4 0 0
1910182N20090 1910 24 NI BB NOT_NAMED 1910-07-01 09:00:00 TS 20.0043 89.9904 main 200 200 _________PP___ -1 20.0000 90.0000 TC 64 20.0101 89.9776 4 0 0
1910182N20090 1910 24 NI BB NOT_NAMED 1910-07-01 12:00:00 TS 20.0044 89.9902 main 200 200 _________OP___ -1 20.0000 90.0000 TC 64 20.0088 89.9804 4 0 0
1910182N20090 1910 24 NI BB NOT_NAMED 1910-07-01 15:00:00 TS 20.0000 90.0000 main 200 200 _________PO___ -1 20.0000 90.0000 TC 64 20.0000 90.0000 4 0 0
1910182N20090 1910 24 NI BB NOT_NAMED 1910-07-01 18:00:00 TS 19.9918 90.0182 main 200 200 _________OP___ -1 20.0000 90.0000 TC 64 19.9837 90.0365 4 0 118
1910182N20090 1910 24 NI BB NOT_NAMED 1910-07-01 21:00:00 TS 19.9811 90.0449 main 200 200 _________PP___ -1 19.9925 90.0225 TC 64 19.9698 90.0673 4 0 0
1910182N20090 1910 24 NI BB NOT_NAMED 1910-07-02 00:00:00 TS 19.9855 90.0323 main 200 200 _________OP___ -1 20.0000 90.0000 TC 64 19.9711 90.0645 4 1 290
1910182N20090 1910 24 NI BB NOT_NAMED 1910-07-02 03:00:00 TS 20.0137 89.9475 main 197 182 _________PO___ -1 20.0274 89.8949 TC 64 20.0000 90.0000 4 3 293
1910182N20090 1910 24 NI BB NOT_NAMED 1910-07-02 06:00:00 TS 20.0898 89.7659 main 182 161 _________OP___ -1 20.1000 89.7000 TC 64 20.0796 89.8318 4 5 296
1910182N20090 1910 24 NI BB NOT_NAMED 1910-07-02 09:00:00 TS 20.2177 89.5015 main 161 145 _________PP___ -1 20.2501 89.4002 TC 64 20.1853 89.6029 4 6 297
1910182N20090 1910 24 NI BB NOT_NAMED 1910-07-02 12:00:00 TS 20.3492 89.2237 main 145 134 _________OP___ -1 20.4000 89.1000 TC 64 20.2984 89.3475 4 5 295
1910182N20090 1910 24 NI BB NOT_NAMED 1910-07-02 15:00:00 TS 20.4324 89.0174 main 134 123 _________PO___ -1 20.4649 88.9349 TC 64 20.4000 89.1000 4 3 292
1910182N20090 1910 24 NI BB NOT_NAMED 1910-07-02 18:00:00 TS 20.4776 88.8936 main 123 123 _________OP___ -1 20.5000 88.8000 TC 64 20.4551 88.9873 4 2 291
1910182N20090 1910 24 NI BB NOT_NAMED 1910-07-02 21:00:00 TS 20.5201 88.7757 main 123 112 _________PP___ -1 20.5421 88.6748 TC 64 20.4982 88.8766 4 3 286
1910182N20090 1910 24 NI BB NOT_NAMED 1910-07-03 00:00:00 TS 20.5711 88.5514 main 112 111 _________OP___ -1 20.6000 88.4000 TC 64 20.5422 88.7027 4 6 281
1910182N20090 1910 24 NI BB NOT_NAMED 1910-07-03 03:00:00 TS 20.6464 88.1088 main 112 52 _________PO___ -1 20.6928 87.8176 TC 55 20.6000 88.4000 4 10 280
1910182N20090 1910 24 NI BB NOT_NAMED 1910-07-03 06:00:00 TS 20.7415 87.4853 main 52 0 _________OP___ -1 20.8000 87.1000 TC 47 20.6830 87.8705 4 12 279
1910182N20090 1910 24 NI BB NOT_NAMED 1910-07-03 09:00:00 TS 20.8397 86.8238 main 0 0 _________PP___ -1 20.8999 86.4350 TC 38 20.7796 87.2127 4 13 279
1910182N20090 1910 24 NI BB NOT_NAMED 1910-07-03 12:00:00 TS 20.9430 86.1492 main 0 0 _________OP___ -1 21.0000 85.8000 TC 30 20.8861 86.4985 4 12 280
1910182N20090 1910 24 NI BB NOT_NAMED 1910-07-03 15:00:00 TS 21.0461 85.5174 main 0 0 _________PO___ -1 21.0922 85.2348 TC 30 21.0000 85.8000 1 11 281
1910182N20090 1910 24 NI BB NOT_NAMED 1910-07-03 18:00:00 TS 21.1585 84.9565 main 0 0 _________OP___ -1 21.2000 84.7000 TC 30 21.1170 85.2130 1 11 283
1910182N20090 1910 24 NI BB NOT_NAMED 1910-07-03 21:00:00 TS 21.2957 84.3987 main 0 0 _________PP___ -1 21.3499 84.1426 TC 30 21.2414 84.6548 1 11 285
1910182N20090 1910 24 NI BB NOT_NAMED 1910-07-04 00:00:00 TS 21.4351 83.8596 main 0 0 _________OP___ -1 21.5000 83.6000 TC 30 21.3702 84.1192 1 10 285
1910182N20090 1910 24 NI BB NOT_NAMED 1910-07-04 03:00:00 TS 21.5499 83.3461 main 0 0 _________PO___ -1 21.5998 83.0923 TC 30 21.5000 83.6000 1 10 284
1910182N20090 1910 24 NI BB NOT_NAMED 1910-07-04 06:00:00 TS 21.6621 82.8447 main 0 0 _________OP___ -1 21.7000 82.6000 TC 30 21.6242 83.0894 1 10 285
1910182N20090 1910 24 NI BB NOT_NAMED 1910-07-04 09:00:00 TS 21.7957 82.3460 main 0 0 _________PP___ -1 21.8423 82.1000 TC 30 21.7490 82.5920 1 10 287
1910182N20090 1910 24 NI BB NOT_NAMED 1910-07-04 12:00:00 TS 21.9371 81.8494 main 0 0 _________OP___ -1 22.0000 81.6000 TC 30 21.8743 82.0987 1 10 287
1910182N20090 1910 24 NI BB NOT_NAMED 1910-07-04 15:00:00 TS 22.0786 81.3537 main 0 0 _________PO___ -1 22.1573 81.1075 TC 30 22.0000 81.6000 1 9 287
1910182N20090 1910 24 NI BB NOT_NAMED 1910-07-04 18:00:00 TS 22.2134 80.8732 main 0 0 _________OP___ -1 22.3000 80.6000 TC 30 22.1269 81.1465 1 9 286
1910182N20090 1910 24 NI BB NOT_NAMED 1910-07-04 21:00:00 TS 22.3304 80.3931 main 0 0 _________PP___ -1 22.4067 80.1097 TC 30 22.2540 80.6765 1 10 283
1910182N20090 1910 24 NI BB NOT_NAMED 1910-07-05 00:00:00 TS 22.4397 79.8216 main 0 0 _________OP___ -1 22.5000 79.5000 TC 30 22.3793 80.1433 1 12 280
1910182N20090 1910 24 NI BB NOT_NAMED 1910-07-05 03:00:00 TS 22.5501 79.0800 main 0 0 _________PO___ -1 22.6001 78.6599 TC 30 22.5000 79.5000 1 15 278
1910182N20090 1910 24 NI BB NOT_NAMED 1910-07-05 06:00:00 TS 22.6504 78.1866 main 0 0 _________OP___ -1 22.7000 77.7000 TC 30 22.6008 78.6732 1 17 277
1910182N20090 1910 24 NI AS NOT_NAMED 1910-07-05 09:00:00 TS 22.7436 77.2407 main 0 0 _________PP___ -1 22.7923 76.7423 TC 30 22.6949 77.7391 1 18 276
1910182N20090 1910 24 NI AS NOT_NAMED 1910-07-05 12:00:00 TS 22.8456 76.2802 main 0 0 _________OP___ -1 22.9000 75.8000 TC 30 22.7912 76.7604 1 17 277
1910182N20090 1910 24 NI AS NOT_NAMED 1910-07-05 15:00:00 TS 22.9710 75.3637 main 0 0 _________PO___ -1 23.0419 74.9275 TC 30 22.9000 75.8000 1 17 279
1910182N20090 1910 24 NI AS NOT_NAMED 1910-07-05 18:00:00 TS 23.1176 74.4970 main 0 0 _________OP___ -1 23.2000 74.1000 TC 30 23.0352 74.8940 1 16 281
1910182N20090 1910 24 NI AS NOT_NAMED 1910-07-05 21:00:00 TS 23.2675 73.6354 main 0 0 _________PP___ -1 23.3501 73.2475 TC 30 23.1849 74.0232 1 15 281
1910182N20090 1910 24 NI AS NOT_NAMED 1910-07-06 00:00:00 TS 23.4210 72.8579 main 0 0 _________OP___ -1 23.5000 72.5000 TC 30 23.3420 73.2158 1 13 283
1910182N20090 1910 24 NI AS NOT_NAMED 1910-07-06 03:00:00 TS 23.5747 72.2274 main 0 0 _________PO___ -1 23.6493 71.9548 TC 30 23.5000 72.5000 1 11 286
1910182N20090 1910 24 NI AS NOT_NAMED 1910-07-06 06:00:00 TS 23.7200 71.6908 main 0 0 _________OP___ -1 23.8000 71.5000 TC 30 23.6400 71.8815 1 10 287
1910182N20090 1910 24 NI AS NOT_NAMED 1910-07-06 09:00:00 TS 23.8664 71.1671 main 0 0 _________PP___ -1 23.9500 70.9775 TC 30 23.7828 71.3567 1 10 288
1910182N20090 1910 24 NI AS NOT_NAMED 1910-07-06 12:00:00 TS 24.0171 70.7018 main 0 0 _________OP___ -1 24.1000 70.5000 TC 30 23.9343 70.9035 1 8 291
1910182N20090 1910 24 NI AS NOT_NAMED 1910-07-06 15:00:00 TS 24.1674 70.3136 main 0 0 _________PO___ -1 24.2347 70.1272 TC 30 24.1000 70.5000 1 7 296
1910182N20090 1910 24 NI AS NOT_NAMED 1910-07-06 18:00:00 TS 24.3334 69.9866 main 0 0 _________OP___ -1 24.4000 69.8000 TC 30 24.2834 70.1266 1 7 302
1910182N20090 1910 24 NI AS NOT_NAMED 1910-07-06 21:00:00 TS 24.5408 69.6473 main 0 0 _________PP___ -1 24.6303 69.4579 TC 30 24.4812 69.7736 1 7 305
1910182N20090 1910 24 NI AS NOT_NAMED 1910-07-07 00:00:00 TS 24.7589 69.3225 main 0 0 _________OP___ -1 24.9000 69.1000 TC 30 24.6884 69.4337 1 6 306
1910182N20090 1910 24 NI AS NOT_NAMED 1910-07-07 03:00:00 NR 24.9000 69.1000 main 0 __________O___ -1 TC 24.9000 69.1000 1 5 305

IBTrACS Databaseについて

本データベースは、米国NOAAが公開する1842年以降の世界の熱帯低気圧のベストトラックデータアーカイブInternational Best Track Archive for Climate Stewardship (IBTrACS)を、ウェブで閲覧しやすい形式に変換したものです。

最終更新日:2021-12-08